sensor_id;sensor_type;location;lat;lon;timestamp;P1;durP1;ratioP1;P2;durP2;ratioP2
14272;SDS011;7220;49.450;11.052;2023-05-07T00:00:48;3.65;;;3.35;;
14272;SDS011;7220;49.450;11.052;2023-05-07T00:04:48;5.05;;;3.28;;
14272;SDS011;7220;49.450;11.052;2023-05-07T00:08:48;3.42;;;3.13;;
14272;SDS011;7220;49.450;11.052;2023-05-07T00:12:49;6.88;;;3.10;;
14272;SDS011;7220;49.450;11.052;2023-05-07T00:16:49;3.65;;;3.08;;
14272;SDS011;7220;49.450;11.052;2023-05-07T00:20:49;3.30;;;3.00;;
14272;SDS011;7220;49.450;11.052;2023-05-07T00:24:50;3.15;;;2.88;;
14272;SDS011;7220;49.450;11.052;2023-05-07T00:28:50;5.27;;;2.83;;
14272;SDS011;7220;49.450;11.052;2023-05-07T00:32:50;2.77;;;2.53;;
14272;SDS011;7220;49.450;11.052;2023-05-07T00:36:51;3.07;;;2.77;;
14272;SDS011;7220;49.450;11.052;2023-05-07T00:40:51;4.40;;;3.23;;
14272;SDS011;7220;49.450;11.052;2023-05-07T00:44:51;4.43;;;3.17;;
14272;SDS011;7220;49.450;11.052;2023-05-07T00:48:52;2.97;;;2.70;;
14272;SDS011;7220;49.450;11.052;2023-05-07T00:52:53;4.20;;;2.90;;
14272;SDS011;7220;49.450;11.052;2023-05-07T00:56:54;3.30;;;3.00;;
14272;SDS011;7220;49.450;11.052;2023-05-07T01:00:55;3.88;;;3.08;;
14272;SDS011;7220;49.450;11.052;2023-05-07T01:04:55;3.37;;;3.07;;
14272;SDS011;7220;49.450;11.052;2023-05-07T01:08:56;3.00;;;2.80;;
14272;SDS011;7220;49.450;11.052;2023-05-07T01:12:57;3.15;;;2.80;;
14272;SDS011;7220;49.450;11.052;2023-05-07T01:16:59;2.85;;;2.65;;
14272;SDS011;7220;49.450;11.052;2023-05-07T01:20:59;3.28;;;2.97;;
14272;SDS011;7220;49.450;11.052;2023-05-07T01:25:02;3.20;;;2.90;;
14272;SDS011;7220;49.450;11.052;2023-05-07T01:29:03;4.03;;;2.97;;
14272;SDS011;7220;49.450;11.052;2023-05-07T01:33:04;2.70;;;2.50;;
14272;SDS011;7220;49.450;11.052;2023-05-07T01:37:10;3.05;;;2.70;;
14272;SDS011;7220;49.450;11.052;2023-05-07T01:41:11;4.57;;;3.20;;
14272;SDS011;7220;49.450;11.052;2023-05-07T01:45:12;5.30;;;3.20;;
14272;SDS011;7220;49.450;11.052;2023-05-07T01:49:12;4.60;;;3.10;;
14272;SDS011;7220;49.450;11.052;2023-05-07T01:53:13;3.08;;;2.78;;
14272;SDS011;7220;49.450;11.052;2023-05-07T01:57:13;3.47;;;3.17;;
14272;SDS011;7220;49.450;11.052;2023-05-07T02:01:14;4.83;;;3.17;;
14272;SDS011;7220;49.450;11.052;2023-05-07T02:05:14;5.00;;;3.20;;
14272;SDS011;7220;49.450;11.052;2023-05-07T02:09:14;6.70;;;3.07;;
14272;SDS011;7220;49.450;11.052;2023-05-07T02:13:15;3.85;;;3.50;;
14272;SDS011;7220;49.450;11.052;2023-05-07T02:17:16;3.63;;;3.33;;
14272;SDS011;7220;49.450;11.052;2023-05-07T02:21:16;3.60;;;3.30;;
14272;SDS011;7220;49.450;11.052;2023-05-07T02:25:16;3.67;;;3.17;;
14272;SDS011;7220;49.450;11.052;2023-05-07T02:29:17;4.07;;;3.53;;
14272;SDS011;7220;49.450;11.052;2023-05-07T02:33:17;3.97;;;3.60;;
14272;SDS011;7220;49.450;11.052;2023-05-07T02:37:17;3.40;;;3.10;;
14272;SDS011;7220;49.450;11.052;2023-05-07T02:41:17;3.83;;;3.47;;
14272;SDS011;7220;49.450;11.052;2023-05-07T02:45:18;4.10;;;3.53;;
14272;SDS011;7220;49.450;11.052;2023-05-07T02:49:18;4.07;;;3.77;;
14272;SDS011;7220;49.450;11.052;2023-05-07T02:53:18;4.13;;;3.83;;
14272;SDS011;7220;49.450;11.052;2023-05-07T02:57:19;4.38;;;3.97;;
14272;SDS011;7220;49.450;11.052;2023-05-07T03:01:19;4.43;;;4.05;;
14272;SDS011;7220;49.450;11.052;2023-05-07T03:05:20;4.30;;;3.90;;
14272;SDS011;7220;49.450;11.052;2023-05-07T03:09:20;4.17;;;3.83;;
14272;SDS011;7220;49.450;11.052;2023-05-07T03:13:21;5.13;;;4.63;;
14272;SDS011;7220;49.450;11.052;2023-05-07T03:17:21;4.85;;;4.18;;
14272;SDS011;7220;49.450;11.052;2023-05-07T03:21:22;5.32;;;4.82;;
14272;SDS011;7220;49.450;11.052;2023-05-07T03:25:22;5.72;;;4.80;;
14272;SDS011;7220;49.450;11.052;2023-05-07T03:29:23;5.35;;;4.80;;
14272;SDS011;7220;49.450;11.052;2023-05-07T03:33:23;5.55;;;5.05;;
14272;SDS011;7220;49.450;11.052;2023-05-07T03:37:23;6.30;;;4.63;;
14272;SDS011;7220;49.450;11.052;2023-05-07T03:41:24;6.43;;;5.80;;
14272;SDS011;7220;49.450;11.052;2023-05-07T03:45:25;4.70;;;4.30;;
14272;SDS011;7220;49.450;11.052;2023-05-07T03:49:25;5.63;;;5.00;;
14272;SDS011;7220;49.450;11.052;2023-05-07T03:53:26;5.07;;;4.68;;
14272;SDS011;7220;49.450;11.052;2023-05-07T03:57:26;5.93;;;5.43;;
14272;SDS011;7220;49.450;11.052;2023-05-07T04:01:26;7.20;;;5.40;;
14272;SDS011;7220;49.450;11.052;2023-05-07T04:05:27;6.63;;;5.53;;
14272;SDS011;7220;49.450;11.052;2023-05-07T04:09:27;6.15;;;5.55;;
14272;SDS011;7220;49.450;11.052;2023-05-07T04:13:27;8.23;;;5.50;;
14272;SDS011;7220;49.450;11.052;2023-05-07T04:17:29;5.90;;;5.40;;
14272;SDS011;7220;49.450;11.052;2023-05-07T04:21:29;6.70;;;5.70;;
14272;SDS011;7220;49.450;11.052;2023-05-07T04:25:30;6.18;;;5.68;;
14272;SDS011;7220;49.450;11.052;2023-05-07T04:29:31;6.43;;;5.82;;
14272;SDS011;7220;49.450;11.052;2023-05-07T04:33:31;5.88;;;5.38;;
14272;SDS011;7220;49.450;11.052;2023-05-07T04:37:32;7.10;;;6.15;;
14272;SDS011;7220;49.450;11.052;2023-05-07T04:41:32;5.63;;;5.13;;
14272;SDS011;7220;49.450;11.052;2023-05-07T04:45:32;5.97;;;5.47;;
14272;SDS011;7220;49.450;11.052;2023-05-07T04:49:33;6.60;;;5.90;;
14272;SDS011;7220;49.450;11.052;2023-05-07T04:53:33;7.17;;;6.50;;
14272;SDS011;7220;49.450;11.052;2023-05-07T04:57:33;6.97;;;5.97;;
14272;SDS011;7220;49.450;11.052;2023-05-07T05:01:34;6.72;;;5.68;;
14272;SDS011;7220;49.450;11.052;2023-05-07T05:05:34;7.30;;;6.32;;
14272;SDS011;7220;49.450;11.052;2023-05-07T05:09:35;6.57;;;5.97;;
14272;SDS011;7220;49.450;11.052;2023-05-07T05:13:35;6.72;;;6.13;;
14272;SDS011;7220;49.450;11.052;2023-05-07T05:17:35;7.45;;;6.75;;
14272;SDS011;7220;49.450;11.052;2023-05-07T05:21:36;7.53;;;6.82;;
14272;SDS011;7220;49.450;11.052;2023-05-07T05:25:36;7.17;;;6.50;;
14272;SDS011;7220;49.450;11.052;2023-05-07T05:29:39;7.30;;;6.60;;
14272;SDS011;7220;49.450;11.052;2023-05-07T05:33:39;7.10;;;6.38;;
14272;SDS011;7220;49.450;11.052;2023-05-07T05:37:40;7.30;;;6.60;;
14272;SDS011;7220;49.450;11.052;2023-05-07T05:41:40;8.02;;;7.32;;
14272;SDS011;7220;49.450;11.052;2023-05-07T05:45:40;7.27;;;6.63;;
14272;SDS011;7220;49.450;11.052;2023-05-07T05:49:41;8.07;;;7.00;;
14272;SDS011;7220;49.450;11.052;2023-05-07T05:53:43;7.80;;;7.10;;
14272;SDS011;7220;49.450;11.052;2023-05-07T05:57:43;7.67;;;6.97;;
14272;SDS011;7220;49.450;11.052;2023-05-07T06:01:43;7.90;;;7.20;;
14272;SDS011;7220;49.450;11.052;2023-05-07T06:05:43;8.73;;;7.73;;
14272;SDS011;7220;49.450;11.052;2023-05-07T06:09:44;7.93;;;7.22;;
14272;SDS011;7220;49.450;11.052;2023-05-07T06:13:44;8.68;;;7.78;;
14272;SDS011;7220;49.450;11.052;2023-05-07T06:17:45;8.27;;;7.47;;
14272;SDS011;7220;49.450;11.052;2023-05-07T06:21:45;8.77;;;6.80;;
14272;SDS011;7220;49.450;11.052;2023-05-07T06:25:48;8.90;;;7.93;;
14272;SDS011;7220;49.450;11.052;2023-05-07T06:29:50;8.13;;;7.35;;
14272;SDS011;7220;49.450;11.052;2023-05-07T06:33:50;8.10;;;7.30;;
14272;SDS011;7220;49.450;11.052;2023-05-07T06:37:50;8.00;;;7.30;;
14272;SDS011;7220;49.450;11.052;2023-05-07T06:41:51;9.73;;;7.43;;
14272;SDS011;7220;49.450;11.052;2023-05-07T06:45:51;8.00;;;7.30;;
14272;SDS011;7220;49.450;11.052;2023-05-07T06:49:51;7.95;;;7.25;;
14272;SDS011;7220;49.450;11.052;2023-05-07T06:53:52;7.57;;;6.88;;
14272;SDS011;7220;49.450;11.052;2023-05-07T06:57:52;8.30;;;7.50;;
14272;SDS011;7220;49.450;11.052;2023-05-07T07:01:52;6.67;;;6.17;;
14272;SDS011;7220;49.450;11.052;2023-05-07T07:05:53;7.85;;;7.15;;
14272;SDS011;7220;49.450;11.052;2023-05-07T07:09:54;8.25;;;6.78;;
14272;SDS011;7220;49.450;11.052;2023-05-07T07:13:55;7.90;;;7.10;;
14272;SDS011;7220;49.450;11.052;2023-05-07T07:17:55;7.40;;;6.77;;
14272;SDS011;7220;49.450;11.052;2023-05-07T07:21:56;7.88;;;7.18;;
14272;SDS011;7220;49.450;11.052;2023-05-07T07:25:56;7.50;;;6.57;;
14272;SDS011;7220;49.450;11.052;2023-05-07T07:29:56;7.80;;;7.00;;
14272;SDS011;7220;49.450;11.052;2023-05-07T07:33:57;7.45;;;6.75;;
14272;SDS011;7220;49.450;11.052;2023-05-07T07:37:57;7.80;;;7.10;;
14272;SDS011;7220;49.450;11.052;2023-05-07T07:41:58;7.70;;;6.55;;
14272;SDS011;7220;49.450;11.052;2023-05-07T07:45:58;7.25;;;6.63;;
14272;SDS011;7220;49.450;11.052;2023-05-07T07:49:59;8.02;;;7.22;;
14272;SDS011;7220;49.450;11.052;2023-05-07T07:53:59;7.47;;;6.75;;
14272;SDS011;7220;49.450;11.052;2023-05-07T07:58:00;7.53;;;6.80;;
14272;SDS011;7220;49.450;11.052;2023-05-07T08:02:01;7.40;;;6.73;;
14272;SDS011;7220;49.450;11.052;2023-05-07T08:06:01;9.13;;;7.63;;
14272;SDS011;7220;49.450;11.052;2023-05-07T08:10:01;7.97;;;6.82;;
14272;SDS011;7220;49.450;11.052;2023-05-07T08:14:02;6.57;;;6.07;;
14272;SDS011;7220;49.450;11.052;2023-05-07T08:18:02;7.63;;;6.07;;
14272;SDS011;7220;49.450;11.052;2023-05-07T08:22:03;6.95;;;6.13;;
14272;SDS011;7220;49.450;11.052;2023-05-07T08:26:05;7.13;;;6.45;;
14272;SDS011;7220;49.450;11.052;2023-05-07T08:30:06;7.18;;;6.18;;
14272;SDS011;7220;49.450;11.052;2023-05-07T08:34:07;7.30;;;6.60;;
14272;SDS011;7220;49.450;11.052;2023-05-07T08:38:07;6.97;;;6.28;;
14272;SDS011;7220;49.450;11.052;2023-05-07T08:42:08;7.10;;;6.18;;
14272;SDS011;7220;49.450;11.052;2023-05-07T08:46:11;6.97;;;6.30;;
14272;SDS011;7220;49.450;11.052;2023-05-07T08:50:16;6.82;;;6.13;;
14272;SDS011;7220;49.450;11.052;2023-05-07T08:54:18;7.07;;;6.40;;
14272;SDS011;7220;49.450;11.052;2023-05-07T08:58:19;7.30;;;5.47;;
14272;SDS011;7220;49.450;11.052;2023-05-07T09:02:20;6.80;;;6.07;;
14272;SDS011;7220;49.450;11.052;2023-05-07T09:06:20;5.85;;;5.35;;
14272;SDS011;7220;49.450;11.052;2023-05-07T09:10:21;6.50;;;5.90;;
14272;SDS011;7220;49.450;11.052;2023-05-07T09:14:22;6.18;;;5.68;;
14272;SDS011;7220;49.450;11.052;2023-05-07T09:18:25;5.23;;;4.83;;
14272;SDS011;7220;49.450;11.052;2023-05-07T09:22:25;6.03;;;5.43;;
14272;SDS011;7220;49.450;11.052;2023-05-07T09:26:26;6.13;;;5.60;;
14272;SDS011;7220;49.450;11.052;2023-05-07T09:30:28;6.43;;;5.82;;
14272;SDS011;7220;49.450;11.052;2023-05-07T09:34:30;6.47;;;5.45;;
14272;SDS011;7220;49.450;11.052;2023-05-07T09:38:31;5.93;;;5.35;;
14272;SDS011;7220;49.450;11.052;2023-05-07T09:42:32;6.65;;;6.05;;
14272;SDS011;7220;49.450;11.052;2023-05-07T09:46:33;6.35;;;5.78;;
14272;SDS011;7220;49.450;11.052;2023-05-07T09:50:36;5.82;;;5.22;;
14272;SDS011;7220;49.450;11.052;2023-05-07T09:54:45;5.53;;;5.03;;
14272;SDS011;7220;49.450;11.052;2023-05-07T09:58:47;6.18;;;5.30;;
14272;SDS011;7220;49.450;11.052;2023-05-07T10:02:49;6.03;;;5.32;;
14272;SDS011;7220;49.450;11.052;2023-05-07T10:06:52;8.00;;;6.00;;
14272;SDS011;7220;49.450;11.052;2023-05-07T10:10:55;6.75;;;4.97;;
14272;SDS011;7220;49.450;11.052;2023-05-07T10:14:55;5.47;;;4.97;;
14272;SDS011;7220;49.450;11.052;2023-05-07T10:18:56;5.47;;;4.97;;
14272;SDS011;7220;49.450;11.052;2023-05-07T10:22:57;6.57;;;4.88;;
14272;SDS011;7220;49.450;11.052;2023-05-07T10:26:59;4.95;;;4.50;;
14272;SDS011;7220;49.450;11.052;2023-05-07T10:31:08;6.43;;;5.25;;
14272;SDS011;7220;49.450;11.052;2023-05-07T10:35:14;5.53;;;5.03;;
14272;SDS011;7220;49.450;11.052;2023-05-07T10:39:24;5.40;;;4.90;;
14272;SDS011;7220;49.450;11.052;2023-05-07T10:43:25;4.72;;;4.25;;
14272;SDS011;7220;49.450;11.052;2023-05-07T10:47:25;7.20;;;5.55;;
14272;SDS011;7220;49.450;11.052;2023-05-07T10:51:26;6.10;;;5.50;;
14272;SDS011;7220;49.450;11.052;2023-05-07T10:55:27;25.00;;;16.13;;
14272;SDS011;7220;49.450;11.052;2023-05-07T10:59:30;41.00;;;26.00;;
14272;SDS011;7220;49.450;11.052;2023-05-07T11:03:31;8.38;;;6.57;;
14272;SDS011;7220;49.450;11.052;2023-05-07T11:07:32;5.70;;;5.10;;
14272;SDS011;7220;49.450;11.052;2023-05-07T11:11:45;7.43;;;6.50;;
14272;SDS011;7220;49.450;11.052;2023-05-07T11:15:56;5.22;;;4.82;;
14272;SDS011;7220;49.450;11.052;2023-05-07T11:19:58;8.38;;;7.00;;
14272;SDS011;7220;49.450;11.052;2023-05-07T11:23:59;5.83;;;5.40;;
14272;SDS011;7220;49.450;11.052;2023-05-07T11:28:06;7.03;;;5.93;;
14272;SDS011;7220;49.450;11.052;2023-05-07T11:32:10;6.15;;;5.55;;
14272;SDS011;7220;49.450;11.052;2023-05-07T11:36:12;4.97;;;4.40;;
14272;SDS011;7220;49.450;11.052;2023-05-07T11:40:13;5.25;;;4.80;;
14272;SDS011;7220;49.450;11.052;2023-05-07T11:44:13;6.50;;;4.78;;
14272;SDS011;7220;49.450;11.052;2023-05-07T11:48:14;4.80;;;4.40;;
14272;SDS011;7220;49.450;11.052;2023-05-07T11:52:16;5.05;;;4.20;;
14272;SDS011;7220;49.450;11.052;2023-05-07T11:56:19;7.35;;;5.28;;
14272;SDS011;7220;49.450;11.052;2023-05-07T12:00:19;4.75;;;4.30;;
14272;SDS011;7220;49.450;11.052;2023-05-07T12:04:20;5.00;;;3.95;;
14272;SDS011;7220;49.450;11.052;2023-05-07T12:08:21;5.00;;;4.03;;
14272;SDS011;7220;49.450;11.052;2023-05-07T12:12:21;4.03;;;3.60;;
14272;SDS011;7220;49.450;11.052;2023-05-07T12:16:22;4.13;;;3.70;;
14272;SDS011;7220;49.450;11.052;2023-05-07T12:20:23;3.33;;;3.00;;
14272;SDS011;7220;49.450;11.052;2023-05-07T12:24:23;3.50;;;3.22;;
14272;SDS011;7220;49.450;11.052;2023-05-07T12:28:24;4.33;;;3.93;;
14272;SDS011;7220;49.450;11.052;2023-05-07T12:32:24;3.53;;;3.03;;
14272;SDS011;7220;49.450;11.052;2023-05-07T12:36:24;3.53;;;3.25;;
14272;SDS011;7220;49.450;11.052;2023-05-07T12:40:35;3.80;;;3.47;;
14272;SDS011;7220;49.450;11.052;2023-05-07T12:44:36;4.70;;;4.25;;
14272;SDS011;7220;49.450;11.052;2023-05-07T12:48:37;4.50;;;4.10;;
14272;SDS011;7220;49.450;11.052;2023-05-07T12:52:38;4.47;;;3.88;;
14272;SDS011;7220;49.450;11.052;2023-05-07T12:56:39;3.90;;;3.50;;
14272;SDS011;7220;49.450;11.052;2023-05-07T13:00:39;4.00;;;3.70;;
14272;SDS011;7220;49.450;11.052;2023-05-07T13:04:41;3.85;;;3.47;;
14272;SDS011;7220;49.450;11.052;2023-05-07T13:08:41;4.13;;;3.72;;
14272;SDS011;7220;49.450;11.052;2023-05-07T13:12:44;3.70;;;3.40;;
14272;SDS011;7220;49.450;11.052;2023-05-07T13:16:45;3.88;;;3.45;;
14272;SDS011;7220;49.450;11.052;2023-05-07T13:20:45;3.83;;;3.43;;
14272;SDS011;7220;49.450;11.052;2023-05-07T13:24:45;4.80;;;4.40;;
14272;SDS011;7220;49.450;11.052;2023-05-07T13:28:46;6.37;;;5.77;;
14272;SDS011;7220;49.450;11.052;2023-05-07T13:32:46;4.90;;;4.40;;
14272;SDS011;7220;49.450;11.052;2023-05-07T13:36:47;4.15;;;3.80;;
14272;SDS011;7220;49.450;11.052;2023-05-07T13:40:48;3.53;;;3.22;;
14272;SDS011;7220;49.450;11.052;2023-05-07T13:44:48;4.70;;;4.30;;
14272;SDS011;7220;49.450;11.052;2023-05-07T13:48:48;5.05;;;4.40;;
14272;SDS011;7220;49.450;11.052;2023-05-07T13:52:50;6.20;;;4.20;;
14272;SDS011;7220;49.450;11.052;2023-05-07T13:56:50;4.80;;;4.40;;
14272;SDS011;7220;49.450;11.052;2023-05-07T14:00:51;4.50;;;4.00;;
14272;SDS011;7220;49.450;11.052;2023-05-07T14:04:51;4.50;;;4.10;;
14272;SDS011;7220;49.450;11.052;2023-05-07T14:08:51;4.73;;;4.33;;
14272;SDS011;7220;49.450;11.052;2023-05-07T14:12:52;4.40;;;3.67;;
14272;SDS011;7220;49.450;11.052;2023-05-07T14:16:52;3.75;;;3.45;;
14272;SDS011;7220;49.450;11.052;2023-05-07T14:20:53;3.92;;;3.63;;
14272;SDS011;7220;49.450;11.052;2023-05-07T14:24:53;4.33;;;3.93;;
14272;SDS011;7220;49.450;11.052;2023-05-07T14:28:53;4.07;;;3.67;;
14272;SDS011;7220;49.450;11.052;2023-05-07T14:32:55;4.20;;;3.20;;
14272;SDS011;7220;49.450;11.052;2023-05-07T14:36:55;4.70;;;3.90;;
14272;SDS011;7220;49.450;11.052;2023-05-07T14:40:55;3.70;;;3.33;;
14272;SDS011;7220;49.450;11.052;2023-05-07T14:44:56;3.35;;;3.05;;
14272;SDS011;7220;49.450;11.052;2023-05-07T14:48:56;3.70;;;3.40;;
14272;SDS011;7220;49.450;11.052;2023-05-07T14:52:57;4.95;;;4.00;;
14272;SDS011;7220;49.450;11.052;2023-05-07T14:56:57;4.68;;;4.28;;
14272;SDS011;7220;49.450;11.052;2023-05-07T15:00:58;5.10;;;4.35;;
14272;SDS011;7220;49.450;11.052;2023-05-07T15:04:59;4.50;;;4.10;;
14272;SDS011;7220;49.450;11.052;2023-05-07T15:08:59;4.75;;;4.35;;
14272;SDS011;7220;49.450;11.052;2023-05-07T15:12:59;4.60;;;4.20;;
14272;SDS011;7220;49.450;11.052;2023-05-07T15:17:00;4.57;;;4.10;;
14272;SDS011;7220;49.450;11.052;2023-05-07T15:21:00;5.43;;;4.88;;
14272;SDS011;7220;49.450;11.052;2023-05-07T15:25:01;5.50;;;4.30;;
14272;SDS011;7220;49.450;11.052;2023-05-07T15:29:01;5.13;;;4.47;;
14272;SDS011;7220;49.450;11.052;2023-05-07T15:33:03;5.65;;;4.15;;
14272;SDS011;7220;49.450;11.052;2023-05-07T15:37:03;4.50;;;4.15;;
14272;SDS011;7220;49.450;11.052;2023-05-07T15:41:03;5.15;;;4.70;;
14272;SDS011;7220;49.450;11.052;2023-05-07T15:45:04;4.80;;;4.20;;
14272;SDS011;7220;49.450;11.052;2023-05-07T15:49:05;5.60;;;5.00;;
14272;SDS011;7220;49.450;11.052;2023-05-07T15:53:08;5.07;;;4.60;;
14272;SDS011;7220;49.450;11.052;2023-05-07T15:57:09;5.72;;;5.13;;
14272;SDS011;7220;49.450;11.052;2023-05-07T16:01:10;6.43;;;4.60;;
14272;SDS011;7220;49.450;11.052;2023-05-07T16:05:10;5.60;;;4.57;;
14272;SDS011;7220;49.450;11.052;2023-05-07T16:09:12;4.43;;;4.03;;
14272;SDS011;7220;49.450;11.052;2023-05-07T16:13:13;5.18;;;4.68;;
14272;SDS011;7220;49.450;11.052;2023-05-07T16:17:13;5.03;;;4.55;;
14272;SDS011;7220;49.450;11.052;2023-05-07T16:21:14;5.80;;;4.55;;
14272;SDS011;7220;49.450;11.052;2023-05-07T16:25:14;5.47;;;4.90;;
14272;SDS011;7220;49.450;11.052;2023-05-07T16:29:15;5.90;;;5.30;;
14272;SDS011;7220;49.450;11.052;2023-05-07T16:33:15;6.32;;;5.00;;
14272;SDS011;7220;49.450;11.052;2023-05-07T16:37:16;8.07;;;6.40;;
14272;SDS011;7220;49.450;11.052;2023-05-07T16:41:16;6.90;;;6.27;;
14272;SDS011;7220;49.450;11.052;2023-05-07T16:45:16;6.30;;;5.40;;
14272;SDS011;7220;49.450;11.052;2023-05-07T16:49:18;4.90;;;4.50;;
14272;SDS011;7220;49.450;11.052;2023-05-07T16:53:18;4.75;;;4.28;;
14272;SDS011;7220;49.450;11.052;2023-05-07T16:57:19;5.63;;;4.97;;
14272;SDS011;7220;49.450;11.052;2023-05-07T17:01:19;6.37;;;5.60;;
14272;SDS011;7220;49.450;11.052;2023-05-07T17:05:20;6.70;;;4.40;;
14272;SDS011;7220;49.450;11.052;2023-05-07T17:09:20;6.38;;;5.32;;
14272;SDS011;7220;49.450;11.052;2023-05-07T17:13:20;5.13;;;4.67;;
14272;SDS011;7220;49.450;11.052;2023-05-07T17:17:20;8.03;;;4.83;;
14272;SDS011;7220;49.450;11.052;2023-05-07T17:21:21;5.32;;;4.93;;
14272;SDS011;7220;49.450;11.052;2023-05-07T17:25:21;6.38;;;4.85;;
14272;SDS011;7220;49.450;11.052;2023-05-07T17:29:22;4.60;;;4.20;;
14272;SDS011;7220;49.450;11.052;2023-05-07T17:33:22;7.27;;;5.13;;
14272;SDS011;7220;49.450;11.052;2023-05-07T17:37:22;5.00;;;4.60;;
14272;SDS011;7220;49.450;11.052;2023-05-07T17:41:23;4.83;;;4.33;;
14272;SDS011;7220;49.450;11.052;2023-05-07T17:45:23;7.53;;;6.82;;
14272;SDS011;7220;49.450;11.052;2023-05-07T17:49:23;5.55;;;5.00;;
14272;SDS011;7220;49.450;11.052;2023-05-07T17:53:24;5.30;;;4.72;;
14272;SDS011;7220;49.450;11.052;2023-05-07T17:57:26;6.20;;;5.25;;
14272;SDS011;7220;49.450;11.052;2023-05-07T18:01:26;9.13;;;5.13;;
14272;SDS011;7220;49.450;11.052;2023-05-07T18:05:27;5.13;;;4.25;;
14272;SDS011;7220;49.450;11.052;2023-05-07T18:09:28;4.90;;;4.13;;
14272;SDS011;7220;49.450;11.052;2023-05-07T18:13:28;5.17;;;4.67;;
14272;SDS011;7220;49.450;11.052;2023-05-07T18:17:28;6.03;;;4.77;;
14272;SDS011;7220;49.450;11.052;2023-05-07T18:21:28;5.73;;;4.37;;
14272;SDS011;7220;49.450;11.052;2023-05-07T18:25:29;7.10;;;4.70;;
14272;SDS011;7220;49.450;11.052;2023-05-07T18:29:29;5.78;;;4.93;;
14272;SDS011;7220;49.450;11.052;2023-05-07T18:33:30;5.20;;;4.70;;
14272;SDS011;7220;49.450;11.052;2023-05-07T18:37:31;5.45;;;4.38;;
14272;SDS011;7220;49.450;11.052;2023-05-07T18:41:31;5.47;;;4.97;;
14272;SDS011;7220;49.450;11.052;2023-05-07T18:45:34;4.57;;;4.18;;
14272;SDS011;7220;49.450;11.052;2023-05-07T18:49:36;5.47;;;4.45;;
14272;SDS011;7220;49.450;11.052;2023-05-07T18:53:40;5.50;;;4.67;;
14272;SDS011;7220;49.450;11.052;2023-05-07T18:57:40;5.97;;;4.28;;
14272;SDS011;7220;49.450;11.052;2023-05-07T19:01:41;5.60;;;4.85;;
14272;SDS011;7220;49.450;11.052;2023-05-07T19:05:42;4.97;;;4.15;;
14272;SDS011;7220;49.450;11.052;2023-05-07T19:09:43;4.97;;;4.35;;
14272;SDS011;7220;49.450;11.052;2023-05-07T19:13:43;5.30;;;4.80;;
14272;SDS011;7220;49.450;11.052;2023-05-07T19:17:44;5.95;;;4.32;;
14272;SDS011;7220;49.450;11.052;2023-05-07T19:21:44;4.70;;;4.30;;
14272;SDS011;7220;49.450;11.052;2023-05-07T19:25:46;5.13;;;4.30;;
14272;SDS011;7220;49.450;11.052;2023-05-07T19:29:46;4.50;;;4.10;;
14272;SDS011;7220;49.450;11.052;2023-05-07T19:33:47;6.60;;;3.93;;
14272;SDS011;7220;49.450;11.052;2023-05-07T19:37:47;4.53;;;4.13;;
14272;SDS011;7220;49.450;11.052;2023-05-07T19:41:48;5.15;;;4.63;;
14272;SDS011;7220;49.450;11.052;2023-05-07T19:45:48;4.83;;;4.43;;
14272;SDS011;7220;49.450;11.052;2023-05-07T19:49:51;4.90;;;4.38;;
14272;SDS011;7220;49.450;11.052;2023-05-07T19:53:52;6.55;;;5.43;;
14272;SDS011;7220;49.450;11.052;2023-05-07T19:57:52;7.40;;;5.70;;
14272;SDS011;7220;49.450;11.052;2023-05-07T20:01:52;5.20;;;4.80;;
14272;SDS011;7220;49.450;11.052;2023-05-07T20:05:52;4.70;;;4.10;;
14272;SDS011;7220;49.450;11.052;2023-05-07T20:09:53;5.55;;;4.50;;
14272;SDS011;7220;49.450;11.052;2023-05-07T20:13:53;5.17;;;4.67;;
14272;SDS011;7220;49.450;11.052;2023-05-07T20:17:53;6.03;;;4.43;;
14272;SDS011;7220;49.450;11.052;2023-05-07T20:21:54;5.15;;;4.68;;
14272;SDS011;7220;49.450;11.052;2023-05-07T20:25:54;5.73;;;5.27;;
14272;SDS011;7220;49.450;11.052;2023-05-07T20:29:56;5.05;;;4.55;;
14272;SDS011;7220;49.450;11.052;2023-05-07T20:33:57;4.80;;;4.30;;
14272;SDS011;7220;49.450;11.052;2023-05-07T20:37:57;4.50;;;4.10;;
14272;SDS011;7220;49.450;11.052;2023-05-07T20:41:57;4.68;;;4.28;;
14272;SDS011;7220;49.450;11.052;2023-05-07T20:45:59;4.80;;;4.40;;
14272;SDS011;7220;49.450;11.052;2023-05-07T20:50:02;6.80;;;4.47;;
14272;SDS011;7220;49.450;11.052;2023-05-07T20:54:03;4.65;;;4.25;;
14272;SDS011;7220;49.450;11.052;2023-05-07T20:58:03;4.82;;;4.43;;
14272;SDS011;7220;49.450;11.052;2023-05-07T21:02:03;5.77;;;5.20;;
14272;SDS011;7220;49.450;11.052;2023-05-07T21:06:04;4.90;;;4.50;;
14272;SDS011;7220;49.450;11.052;2023-05-07T21:10:04;5.00;;;4.35;;
14272;SDS011;7220;49.450;11.052;2023-05-07T21:14:05;6.40;;;4.10;;
14272;SDS011;7220;49.450;11.052;2023-05-07T21:18:05;5.73;;;4.40;;
14272;SDS011;7220;49.450;11.052;2023-05-07T21:22:06;6.50;;;4.78;;
14272;SDS011;7220;49.450;11.052;2023-05-07T21:26:06;5.50;;;5.00;;
14272;SDS011;7220;49.450;11.052;2023-05-07T21:30:07;5.00;;;4.60;;
14272;SDS011;7220;49.450;11.052;2023-05-07T21:34:07;5.53;;;5.03;;
14272;SDS011;7220;49.450;11.052;2023-05-07T21:38:08;5.63;;;4.70;;
14272;SDS011;7220;49.450;11.052;2023-05-07T21:42:08;5.15;;;4.65;;
14272;SDS011;7220;49.450;11.052;2023-05-07T21:46:08;8.60;;;4.70;;
14272;SDS011;7220;49.450;11.052;2023-05-07T21:50:09;5.38;;;4.88;;
14272;SDS011;7220;49.450;11.052;2023-05-07T21:54:09;5.17;;;4.67;;
14272;SDS011;7220;49.450;11.052;2023-05-07T21:58:10;5.00;;;4.60;;
14272;SDS011;7220;49.450;11.052;2023-05-07T22:02:10;4.90;;;4.50;;
14272;SDS011;7220;49.450;11.052;2023-05-07T22:06:10;5.33;;;4.57;;
14272;SDS011;7220;49.450;11.052;2023-05-07T22:10:10;5.05;;;4.55;;
14272;SDS011;7220;49.450;11.052;2023-05-07T22:14:11;5.07;;;4.67;;
14272;SDS011;7220;49.450;11.052;2023-05-07T22:18:11;5.32;;;4.82;;
14272;SDS011;7220;49.450;11.052;2023-05-07T22:22:11;4.73;;;4.33;;
14272;SDS011;7220;49.450;11.052;2023-05-07T22:26:12;4.70;;;4.30;;
14272;SDS011;7220;49.450;11.052;2023-05-07T22:30:13;5.10;;;4.60;;
14272;SDS011;7220;49.450;11.052;2023-05-07T22:34:13;4.95;;;4.50;;
14272;SDS011;7220;49.450;11.052;2023-05-07T22:38:14;5.13;;;4.70;;
14272;SDS011;7220;49.450;11.052;2023-05-07T22:42:14;5.28;;;4.78;;
14272;SDS011;7220;49.450;11.052;2023-05-07T22:46:14;5.18;;;4.68;;
14272;SDS011;7220;49.450;11.052;2023-05-07T22:50:15;4.78;;;4.38;;
14272;SDS011;7220;49.450;11.052;2023-05-07T22:54:15;5.00;;;4.50;;
14272;SDS011;7220;49.450;11.052;2023-05-07T22:58:15;6.75;;;5.28;;
14272;SDS011;7220;49.450;11.052;2023-05-07T23:02:16;5.25;;;4.57;;
14272;SDS011;7220;49.450;11.052;2023-05-07T23:06:16;5.23;;;4.73;;
14272;SDS011;7220;49.450;11.052;2023-05-07T23:10:16;5.18;;;4.68;;
14272;SDS011;7220;49.450;11.052;2023-05-07T23:14:17;5.43;;;4.93;;
14272;SDS011;7220;49.450;11.052;2023-05-07T23:18:17;4.70;;;4.30;;
14272;SDS011;7220;49.450;11.052;2023-05-07T23:22:17;5.85;;;5.35;;
14272;SDS011;7220;49.450;11.052;2023-05-07T23:26:18;5.63;;;5.00;;
14272;SDS011;7220;49.450;11.052;2023-05-07T23:30:18;6.10;;;4.53;;
14272;SDS011;7220;49.450;11.052;2023-05-07T23:34:18;5.55;;;5.03;;
14272;SDS011;7220;49.450;11.052;2023-05-07T23:38:22;5.50;;;5.00;;
14272;SDS011;7220;49.450;11.052;2023-05-07T23:42:22;5.85;;;5.25;;
14272;SDS011;7220;49.450;11.052;2023-05-07T23:46:23;5.80;;;5.30;;
14272;SDS011;7220;49.450;11.052;2023-05-07T23:50:23;5.60;;;5.10;;
14272;SDS011;7220;49.450;11.052;2023-05-07T23:54:24;5.38;;;4.90;;
14272;SDS011;7220;49.450;11.052;2023-05-07T23:58:24;5.47;;;4.97;;
